• Join FlightAware (Why Join?)
  • Login
  • US Flag 
04:23AM EDT


 

Airport Tracker/Info


-or-


 

Live Flight TrackerFlight Track Log ✈ ASQ6115 ✈ 23-Apr-2013 ✈ KMSN - KORD

Flight Track Log - Related Links

Times and Time Zones

All times are in EDT time to prevent confusion due to time zone crossing. See the ASQ6115 flight status page for this flight to view local times or setup timezone preferences in your user account.

Time Position Orientation Groundspeed Altitude Reporting Facility
EDT Latitude Longitude Course Direction KTS MPH feet Rate Location/Type
09:40PM 43.1717 -89.3197 162° South 180 207 3,800  Level Chicago Center
09:41PM 43.1367 -89.2453 123° Southeast 248 285 7,100 3,120 Climbing Chicago Center
09:42PM 42.9383 -89.2486 164° South  Level FlightAware Approximate
09:42PM 43.0614 -89.2239 168° South 276 318 10,300  Level Chicago Center
09:43PM 42.8739 -89.2239 144° Southeast  Level FlightAware Approximate
09:43PM 42.9756 -89.2006 169° South 315 362 11,100  Level Chicago Center
09:44PM 42.8090 -89.1981 170° South  Level FlightAware Approximate
09:44PM 42.8942 -89.1161 143° Southeast 364 419 11,100  Level Chicago Center
09:45PM 42.7422 -89.1798 162° South  Level FlightAware Approximate
09:45PM 42.8164 -89.0219 138° Southeast 373 429 11,100  Level Chicago Center
09:46PM 42.7383 -88.9294 139° Southeast 373 429 11,100  Level Chicago Center
09:47PM 42.6494 -88.8244 139° Southeast 366 421 11,100  Level Chicago Center
09:48PM 42.5700 -88.7303 139° Southeast 376 433 11,100 -240 Level Chicago Center
09:49PM 42.4919 -88.6367 138° Southeast 377 434 10,700 -540 Descending Chicago Center
09:50PM 42.4192 -88.5514 139° Southeast 352 405 10,100 -360 Descending Chicago Center
09:51PM 42.3647 -88.4719 133° Southeast 304 350 10,000 -660 Descending Chicago Center
09:52PM 42.3281 -88.3656 115° Southeast 310 357 8,800 -1,320 Descending Chicago Center
09:53PM 42.2792 -88.2875 130° Southeast 279 321 7,400 -900 Descending Chicago Center
09:54PM 42.2269 -88.2000 129° Southeast 257 296 7,000 -240 Descending Chicago Center
09:55PM 42.1850 -88.1333 130° Southeast 242 278 7,000  Level Chicago Center
09:56PM 42.1350 -88.0800 142° Southeast 233 268 7,000  Level Chicago Center
09:57PM 42.1000 -88.0500 148° Southeast 232 267 7,000  Level Chicago TRACON
09:58PM 42.1000 -87.9667 90° East 257 296 7,000  Level Chicago TRACON
09:59PM 42.0833 -87.8667 103° East 254 292 7,000 -420 Level Chicago TRACON
10:00PM 42.0833 -87.7667 90° East 237 273 6,200 -1,320 Descending Chicago TRACON
10:01PM 42.0833 -87.6833 90° East 234 269 4,400 -1,140 Descending Chicago TRACON
10:02PM 42.0833 -87.6000 90° East 228 262 4,000 -240 Descending Chicago TRACON
10:03PM 42.0833 -87.5167 90° East 230 265 4,000  Level Chicago TRACON
10:04PM 42.0667 -87.4333 105° East 234 269 4,000  Level Chicago TRACON
10:05PM 42.0167 -87.4000 154° Southeast 234 269 4,000  Level Chicago TRACON
10:06PM 41.9833 -87.4500 228° Southwest 184 212 4,000  Level Chicago TRACON
10:07PM 41.9833 -87.5000 270° West 166 191 4,000  Level Chicago TRACON
10:08PM 41.9833 -87.5667 270° West 182 209 4,000  Level Chicago TRACON
10:09PM 41.9833 -87.6333 270° West 182 209 4,000 -300 Level Chicago TRACON
10:10PM 41.9833 -87.7000 270° West 184 212 3,500 -840 Descending Chicago TRACON
10:11PM 41.9833 -87.7833 270° West 192 221 2,400 -660 Descending Chicago TRACON
10:12PM 41.9833 -87.8333 270° West 171 197 2,200 360 Descending Chicago TRACON
10:13PM 42.0167 -87.8667 323° Northwest 195 224 3,200 900 Climbing Chicago TRACON
10:14PM 42.0667 -87.8333 26° Northeast 216 249 4,000 360 Climbing Chicago TRACON
10:15PM 42.0667 -87.7500 90° East 227 261 4,000  Level Chicago TRACON
10:16PM 42.0667 -87.6667 90° East 225 259 4,000  Level Chicago TRACON
10:17PM 42.0667 -87.5833 90° East 224 258 4,000  Level Chicago TRACON
10:18PM 42.0667 -87.5000 90° East 232 267 4,000  Level Chicago TRACON
10:19PM 42.0000 -87.4833 169° South 222 255 4,000  Level Chicago TRACON
10:20PM 41.9833 -87.5500 251° West 183 211 4,000  Level Chicago TRACON
10:21PM 41.9833 -87.6167 270° West 184 212 4,000 -60 Level Chicago TRACON
10:22PM 41.9833 -87.6833 270° West 185 213 3,900 -600 Descending Chicago TRACON
10:23PM 41.9833 -87.7500 270° West 193 222 2,800 -1,140 Descending Chicago TRACON